This is the latest recevied weather packets stored in our database for station/object E27EKO-13. If no packets are shown the sender has not sent any weather packets the latest 10 day(s).
| Time | Temp. | Humidity | Pressure | Rain* | Wind** | Luminosity | Snow |
|---|---|---|---|---|---|---|---|
| 1777858569 | 37.78° C | 65% | 1010 hPa | - | - | 0 W/m² | - |
| 1777858247 | 37.78° C | 67% | 1010 hPa | - | - | 0 W/m² | - |
| 1777857925 | 37.78° C | 67% | 1010 hPa | - | - | 0 W/m² | - |
| 1777857603 | 37.22° C | 70% | 1010 hPa | - | - | 0 W/m² | - |
| 1777857536 | 36.67° C | 71% | 1010 hPa | - | - | 0 W/m² | - |
| 1777857432 | 36.67° C | 70% | 1010 hPa | - | - | 0 W/m² | - |
| 1777857110 | 36.67° C | 70% | 1010 hPa | - | - | 0 W/m² | - |
| 1777856788 | 37.22° C | 67% | 1010 hPa | - | - | 0 W/m² | - |
| 1777856439 | 37.78° C | 64% | 1009 hPa | - | - | 0 W/m² | - |
| 1777856117 | 38.89° C | 60% | 1009 hPa | - | - | 0 W/m² | - |
| 1777855795 | 42.22° C | 54% | 1009 hPa | - | - | 0 W/m² | - |
| 1777855473 | 39.44° C | 60% | 1009 hPa | - | - | 0 W/m² | - |
| 1777855151 | 40° C | 57% | 1009 hPa | - | - | 0 W/m² | - |
| 1777854961 | 39.44° C | 58% | 1009 hPa | - | - | 0 W/m² | - |
| 1777854639 | 41.11° C | 55% | 1009 hPa | - | - | 0 W/m² | - |
| 1777854317 | 40.56° C | 56% | 1009 hPa | - | - | 0 W/m² | - |
| 1777853995 | 38.89° C | 60% | 1009 hPa | - | - | 0 W/m² | - |
| 1777853673 | 39.44° C | 59% | 1009 hPa | - | - | 0 W/m² | - |
| 1777853351 | 40.56° C | 57% | 1009 hPa | - | - | 0 W/m² | - |
| 1777853140 | 40.56° C | 56% | 1009 hPa | - | - | 0 W/m² | - |
| 1777852818 | 39.44° C | 59% | 1009 hPa | - | - | 0 W/m² | - |
| 1777852496 | 41.11° C | 56% | 1009 hPa | - | - | 0 W/m² | - |
| 1777852174 | 40° C | 59% | 1008 hPa | - | - | 0 W/m² | - |
| 1777851852 | 38.89° C | 64% | 1008 hPa | - | - | 0 W/m² | - |
| 1777851530 | 37.22° C | 70% | 1008 hPa | - | - | 0 W/m² | - |
* Rain since midnight (hover to see other rain measurements)
** Current wind speed in m/s (hover to see current wind gust speed)